sensor_id;sensor_type;location;lat;lon;timestamp;temperature;humidity
1956;DHT22;978;48.314;11.562;2023-12-28T00:00:25;21.70;65.40
1956;DHT22;978;48.314;11.562;2023-12-28T00:02:54;20.70;65.30
1956;DHT22;978;48.314;11.562;2023-12-28T00:05:22;20.70;65.20
1956;DHT22;978;48.314;11.562;2023-12-28T00:07:50;20.70;65.30
1956;DHT22;978;48.314;11.562;2023-12-28T00:10:24;22.50;66.20
1956;DHT22;978;48.314;11.562;2023-12-28T00:12:51;20.70;64.60
1956;DHT22;978;48.314;11.562;2023-12-28T00:15:20;20.70;65.20
1956;DHT22;978;48.314;11.562;2023-12-28T00:17:47;20.70;65.10
1956;DHT22;978;48.314;11.562;2023-12-28T00:20:17;20.70;64.60
1956;DHT22;978;48.314;11.562;2023-12-28T00:22:45;16.90;63.60
1956;DHT22;978;48.314;11.562;2023-12-28T00:25:14;20.70;64.50
1956;DHT22;978;48.314;11.562;2023-12-28T00:27:42;20.70;65.00
1956;DHT22;978;48.314;11.562;2023-12-28T00:30:12;20.70;65.00
1956;DHT22;978;48.314;11.562;2023-12-28T00:32:41;20.70;65.00
1956;DHT22;978;48.314;11.562;2023-12-28T00:35:10;20.70;64.40
1956;DHT22;978;48.314;11.562;2023-12-28T00:37:42;20.70;65.00
1956;DHT22;978;48.314;11.562;2023-12-28T00:40:10;20.70;64.90
1956;DHT22;978;48.314;11.562;2023-12-28T00:42:41;20.70;64.90
1956;DHT22;978;48.314;11.562;2023-12-28T00:45:09;20.70;64.30
1956;DHT22;978;48.314;11.562;2023-12-28T00:47:38;20.70;64.30
1956;DHT22;978;48.314;11.562;2023-12-28T00:50:06;20.70;64.80
1956;DHT22;978;48.314;11.562;2023-12-28T00:52:38;20.70;64.20
1956;DHT22;978;48.314;11.562;2023-12-28T00:55:11;20.70;65.30
1956;DHT22;978;48.314;11.562;2023-12-28T00:57:39;20.70;64.10
1956;DHT22;978;48.314;11.562;2023-12-28T01:00:07;20.70;64.10
1956;DHT22;978;48.314;11.562;2023-12-28T01:02:35;20.70;64.60
1956;DHT22;978;48.314;11.562;2023-12-28T01:05:04;20.70;64.60
1956;DHT22;978;48.314;11.562;2023-12-28T01:07:32;20.70;64.00
1956;DHT22;978;48.314;11.562;2023-12-28T01:10:00;20.70;64.50
1956;DHT22;978;48.314;11.562;2023-12-28T01:12:29;20.70;64.50
1956;DHT22;978;48.314;11.562;2023-12-28T01:14:57;20.70;64.40
1956;DHT22;978;48.314;11.562;2023-12-28T01:17:25;20.70;64.40
1956;DHT22;978;48.314;11.562;2023-12-28T01:19:53;20.70;64.40
1956;DHT22;978;48.314;11.562;2023-12-28T01:22:21;20.70;64.40
1956;DHT22;978;48.314;11.562;2023-12-28T01:24:49;20.70;64.30
1956;DHT22;978;48.314;11.562;2023-12-28T01:27:17;20.70;64.30
1956;DHT22;978;48.314;11.562;2023-12-28T01:29:47;20.70;64.90
1956;DHT22;978;48.314;11.562;2023-12-28T01:32:15;20.70;64.30
1956;DHT22;978;48.314;11.562;2023-12-28T01:34:43;21.40;64.70
1956;DHT22;978;48.314;11.562;2023-12-28T01:37:10;21.60;64.80
1956;DHT22;978;48.314;11.562;2023-12-28T01:39:38;20.70;63.70
1956;DHT22;978;48.314;11.562;2023-12-28T01:44:35;20.70;63.60
1956;DHT22;978;48.314;11.562;2023-12-28T01:47:04;20.70;64.10
1956;DHT22;978;48.314;11.562;2023-12-28T01:49:33;20.90;64.20
1956;DHT22;978;48.314;11.562;2023-12-28T01:52:03;20.70;64.00
1956;DHT22;978;48.314;11.562;2023-12-28T01:54:32;20.70;64.00
1956;DHT22;978;48.314;11.562;2023-12-28T01:57:00;20.70;64.00
1956;DHT22;978;48.314;11.562;2023-12-28T01:59:30;20.70;64.00
1956;DHT22;978;48.314;11.562;2023-12-28T02:01:57;21.20;64.20
1956;DHT22;978;48.314;11.562;2023-12-28T02:04:26;22.30;64.80
1956;DHT22;978;48.314;11.562;2023-12-28T02:06:57;22.00;64.60
1956;DHT22;978;48.314;11.562;2023-12-28T02:09:25;20.80;63.90
1956;DHT22;978;48.314;11.562;2023-12-28T02:11:54;20.70;63.80
1956;DHT22;978;48.314;11.562;2023-12-28T02:14:22;20.70;63.20
1956;DHT22;978;48.314;11.562;2023-12-28T02:16:57;20.70;63.20
1956;DHT22;978;48.314;11.562;2023-12-28T02:19:32;20.70;63.70
1956;DHT22;978;48.314;11.562;2023-12-28T02:22:01;20.70;63.60
1956;DHT22;978;48.314;11.562;2023-12-28T02:24:30;20.70;63.60
1956;DHT22;978;48.314;11.562;2023-12-28T02:27:00;20.70;63.60
1956;DHT22;978;48.314;11.562;2023-12-28T02:29:28;20.70;63.50
1956;DHT22;978;48.314;11.562;2023-12-28T02:32:00;20.70;63.50
1956;DHT22;978;48.314;11.562;2023-12-28T02:34:37;23.10;64.80
1956;DHT22;978;48.314;11.562;2023-12-28T02:37:08;21.00;63.60
1956;DHT22;978;48.314;11.562;2023-12-28T02:39:38;20.70;63.40
1956;DHT22;978;48.314;11.562;2023-12-28T02:42:07;20.70;63.40
1956;DHT22;978;48.314;11.562;2023-12-28T02:44:35;20.70;62.80
1956;DHT22;978;48.314;11.562;2023-12-28T02:47:03;20.70;63.30
1956;DHT22;978;48.314;11.562;2023-12-28T02:49:32;20.70;62.80
1956;DHT22;978;48.314;11.562;2023-12-28T02:52:00;20.70;63.30
1956;DHT22;978;48.314;11.562;2023-12-28T02:54:28;20.70;62.70
1956;DHT22;978;48.314;11.562;2023-12-28T02:56:57;20.70;63.20
1956;DHT22;978;48.314;11.562;2023-12-28T02:59:26;20.70;63.20
1956;DHT22;978;48.314;11.562;2023-12-28T03:01:53;20.70;62.60
1956;DHT22;978;48.314;11.562;2023-12-28T03:04:21;20.70;62.60
1956;DHT22;978;48.314;11.562;2023-12-28T03:06:49;20.60;63.10
1956;DHT22;978;48.314;11.562;2023-12-28T03:09:17;20.70;63.10
1956;DHT22;978;48.314;11.562;2023-12-28T03:11:45;20.70;63.00
1956;DHT22;978;48.314;11.562;2023-12-28T03:14:14;20.70;63.00
1956;DHT22;978;48.314;11.562;2023-12-28T03:16:43;20.70;63.00
1956;DHT22;978;48.314;11.562;2023-12-28T03:19:11;20.70;63.00
1956;DHT22;978;48.314;11.562;2023-12-28T03:21:39;20.70;62.40
1956;DHT22;978;48.314;11.562;2023-12-28T03:24:09;20.70;62.40
1956;DHT22;978;48.314;11.562;2023-12-28T03:26:38;20.70;62.90
1956;DHT22;978;48.314;11.562;2023-12-28T03:29:05;20.70;62.30
1956;DHT22;978;48.314;11.562;2023-12-28T03:31:38;20.70;62.80
1956;DHT22;978;48.314;11.562;2023-12-28T03:34:09;20.70;62.80
1956;DHT22;978;48.314;11.562;2023-12-28T03:36:38;20.70;62.20
1956;DHT22;978;48.314;11.562;2023-12-28T03:39:05;20.70;62.70
1956;DHT22;978;48.314;11.562;2023-12-28T03:41:33;20.70;62.70
1956;DHT22;978;48.314;11.562;2023-12-28T03:44:01;20.70;62.70
1956;DHT22;978;48.314;11.562;2023-12-28T03:46:29;20.70;62.20
1956;DHT22;978;48.314;11.562;2023-12-28T03:48:58;20.70;62.20
1956;DHT22;978;48.314;11.562;2023-12-28T03:51:27;20.70;62.10
1956;DHT22;978;48.314;11.562;2023-12-28T03:53:55;20.70;62.00
1956;DHT22;978;48.314;11.562;2023-12-28T03:56:25;20.70;62.00
1956;DHT22;978;48.314;11.562;2023-12-28T03:58:53;20.70;62.50
1956;DHT22;978;48.314;11.562;2023-12-28T04:01:22;20.70;62.00
1956;DHT22;978;48.314;11.562;2023-12-28T04:03:50;20.70;62.00
1956;DHT22;978;48.314;11.562;2023-12-28T04:06:18;20.70;62.50
1956;DHT22;978;48.314;11.562;2023-12-28T04:08:48;20.70;62.90
1956;DHT22;978;48.314;11.562;2023-12-28T04:11:16;20.70;62.50
1956;DHT22;978;48.314;11.562;2023-12-28T04:13:44;22.90;63.70
1956;DHT22;978;48.314;11.562;2023-12-28T04:16:12;20.70;62.40
1956;DHT22;978;48.314;11.562;2023-12-28T04:18:40;20.70;62.40
1956;DHT22;978;48.314;11.562;2023-12-28T04:21:09;20.70;61.80
1956;DHT22;978;48.314;11.562;2023-12-28T04:23:39;22.30;63.30
1956;DHT22;978;48.314;11.562;2023-12-28T04:26:10;21.40;62.70
1956;DHT22;978;48.314;11.562;2023-12-28T04:28:40;20.70;61.70
1956;DHT22;978;48.314;11.562;2023-12-28T04:31:08;20.70;61.70
1956;DHT22;978;48.314;11.562;2023-12-28T04:33:36;20.70;62.20
1956;DHT22;978;48.314;11.562;2023-12-28T04:36:05;20.70;62.20
1956;DHT22;978;48.314;11.562;2023-12-28T04:38:33;20.70;61.60
1956;DHT22;978;48.314;11.562;2023-12-28T04:41:01;20.70;62.20
1956;DHT22;978;48.314;11.562;2023-12-28T04:43:31;20.70;61.60
1956;DHT22;978;48.314;11.562;2023-12-28T04:46:02;20.70;62.10
1956;DHT22;978;48.314;11.562;2023-12-28T04:48:30;20.70;62.00
1956;DHT22;978;48.314;11.562;2023-12-28T04:50:58;20.70;61.50
1956;DHT22;978;48.314;11.562;2023-12-28T04:53:29;20.70;62.00
1956;DHT22;978;48.314;11.562;2023-12-28T04:55:57;20.70;61.90
1956;DHT22;978;48.314;11.562;2023-12-28T04:58:25;20.70;61.90
1956;DHT22;978;48.314;11.562;2023-12-28T05:00:54;20.70;61.40
1956;DHT22;978;48.314;11.562;2023-12-28T05:03:22;20.70;61.90
1956;DHT22;978;48.314;11.562;2023-12-28T05:05:50;20.70;61.90
1956;DHT22;978;48.314;11.562;2023-12-28T05:08:18;21.70;62.40
1956;DHT22;978;48.314;11.562;2023-12-28T05:10:46;21.10;62.00
1956;DHT22;978;48.314;11.562;2023-12-28T05:13:14;20.70;61.80
1956;DHT22;978;48.314;11.562;2023-12-28T05:15:42;20.70;61.80
1956;DHT22;978;48.314;11.562;2023-12-28T05:18:15;20.70;61.20
1956;DHT22;978;48.314;11.562;2023-12-28T05:20:43;20.70;61.70
1956;DHT22;978;48.314;11.562;2023-12-28T05:23:10;20.70;61.70
1956;DHT22;978;48.314;11.562;2023-12-28T05:25:38;22.10;62.50
1956;DHT22;978;48.314;11.562;2023-12-28T05:28:04;20.70;61.10
1956;DHT22;978;48.314;11.562;2023-12-28T05:30:32;20.70;61.60
1956;DHT22;978;48.314;11.562;2023-12-28T05:33:00;21.00;61.80
1956;DHT22;978;48.314;11.562;2023-12-28T05:35:29;20.70;61.10
1956;DHT22;978;48.314;11.562;2023-12-28T05:37:57;20.70;61.70
1956;DHT22;978;48.314;11.562;2023-12-28T05:40:26;20.70;61.00
1956;DHT22;978;48.314;11.562;2023-12-28T05:42:54;20.70;61.50
1956;DHT22;978;48.314;11.562;2023-12-28T05:45:22;20.70;61.50
1956;DHT22;978;48.314;11.562;2023-12-28T05:47:50;20.70;60.90
1956;DHT22;978;48.314;11.562;2023-12-28T05:50:18;20.70;61.50
1956;DHT22;978;48.314;11.562;2023-12-28T05:52:47;20.70;61.40
1956;DHT22;978;48.314;11.562;2023-12-28T05:55:15;20.70;61.30
1956;DHT22;978;48.314;11.562;2023-12-28T05:57:43;20.80;61.40
1956;DHT22;978;48.314;11.562;2023-12-28T06:00:10;23.10;62.70
1956;DHT22;978;48.314;11.562;2023-12-28T06:02:41;20.70;60.80
1956;DHT22;978;48.314;11.562;2023-12-28T06:05:09;20.70;60.70
1956;DHT22;978;48.314;11.562;2023-12-28T06:07:37;20.70;61.20
1956;DHT22;978;48.314;11.562;2023-12-28T06:10:11;20.70;60.70
1956;DHT22;978;48.314;11.562;2023-12-28T06:12:41;20.70;61.20
1956;DHT22;978;48.314;11.562;2023-12-28T06:15:09;20.70;61.10
1956;DHT22;978;48.314;11.562;2023-12-28T06:17:37;20.70;61.10
1956;DHT22;978;48.314;11.562;2023-12-28T06:20:05;20.70;61.10
1956;DHT22;978;48.314;11.562;2023-12-28T06:22:36;20.70;60.50
1956;DHT22;978;48.314;11.562;2023-12-28T06:25:04;20.70;61.00
1956;DHT22;978;48.314;11.562;2023-12-28T06:27:34;20.70;61.00
1956;DHT22;978;48.314;11.562;2023-12-28T06:30:03;20.70;60.50
1956;DHT22;978;48.314;11.562;2023-12-28T06:32:30;20.70;60.40
1956;DHT22;978;48.314;11.562;2023-12-28T06:34:59;21.40;61.40
1956;DHT22;978;48.314;11.562;2023-12-28T06:37:27;20.70;60.90
1956;DHT22;978;48.314;11.562;2023-12-28T06:39:55;21.60;61.50
1956;DHT22;978;48.314;11.562;2023-12-28T06:42:23;20.70;60.40
1956;DHT22;978;48.314;11.562;2023-12-28T06:44:52;20.70;60.90
1956;DHT22;978;48.314;11.562;2023-12-28T06:47:20;20.70;60.40
1956;DHT22;978;48.314;11.562;2023-12-28T06:49:48;21.70;61.50
1956;DHT22;978;48.314;11.562;2023-12-28T06:52:16;20.70;60.90
1956;DHT22;978;48.314;11.562;2023-12-28T06:54:44;20.70;60.40
1956;DHT22;978;48.314;11.562;2023-12-28T06:57:12;20.70;60.30
1956;DHT22;978;48.314;11.562;2023-12-28T06:59:40;20.70;60.80
1956;DHT22;978;48.314;11.562;2023-12-28T07:02:10;20.70;60.80
1956;DHT22;978;48.314;11.562;2023-12-28T07:04:38;20.70;60.70
1956;DHT22;978;48.314;11.562;2023-12-28T07:07:06;20.70;60.80
1956;DHT22;978;48.314;11.562;2023-12-28T07:09:36;20.70;60.70
1956;DHT22;978;48.314;11.562;2023-12-28T07:12:06;20.70;60.70
1956;DHT22;978;48.314;11.562;2023-12-28T07:14:35;20.70;60.70
1956;DHT22;978;48.314;11.562;2023-12-28T07:17:03;20.70;60.80
1956;DHT22;978;48.314;11.562;2023-12-28T07:19:33;20.70;60.20
1956;DHT22;978;48.314;11.562;2023-12-28T07:22:01;20.80;60.80
1956;DHT22;978;48.314;11.562;2023-12-28T07:24:30;20.70;60.70
1956;DHT22;978;48.314;11.562;2023-12-28T07:26:57;20.70;60.70
1956;DHT22;978;48.314;11.562;2023-12-28T07:29:26;20.70;60.20
1956;DHT22;978;48.314;11.562;2023-12-28T07:31:54;20.70;60.10
1956;DHT22;978;48.314;11.562;2023-12-28T07:34:22;20.60;60.60
1956;DHT22;978;48.314;11.562;2023-12-28T07:36:51;20.70;60.10
1956;DHT22;978;48.314;11.562;2023-12-28T07:39:19;20.70;60.60
1956;DHT22;978;48.314;11.562;2023-12-28T07:41:47;20.70;60.10
1956;DHT22;978;48.314;11.562;2023-12-28T07:44:16;20.70;60.60
1956;DHT22;978;48.314;11.562;2023-12-28T07:46:44;20.70;60.10
1956;DHT22;978;48.314;11.562;2023-12-28T07:49:12;20.70;60.60
1956;DHT22;978;48.314;11.562;2023-12-28T07:51:40;20.70;60.60
1956;DHT22;978;48.314;11.562;2023-12-28T07:54:10;20.70;60.10
1956;DHT22;978;48.314;11.562;2023-12-28T07:56:38;20.70;60.60
1956;DHT22;978;48.314;11.562;2023-12-28T07:59:05;20.70;60.10
1956;DHT22;978;48.314;11.562;2023-12-28T08:01:36;21.00;61.50
1956;DHT22;978;48.314;11.562;2023-12-28T08:04:04;20.70;60.60
1956;DHT22;978;48.314;11.562;2023-12-28T08:06:32;20.70;60.00
1956;DHT22;978;48.314;11.562;2023-12-28T08:09:00;20.60;60.50
1956;DHT22;978;48.314;11.562;2023-12-28T08:11:29;20.70;60.50
1956;DHT22;978;48.314;11.562;2023-12-28T08:13:57;20.70;61.10
1956;DHT22;978;48.314;11.562;2023-12-28T08:16:25;20.60;60.50
1956;DHT22;978;48.314;11.562;2023-12-28T08:18:54;20.70;60.50
1956;DHT22;978;48.314;11.562;2023-12-28T08:21:22;20.70;60.50
1956;DHT22;978;48.314;11.562;2023-12-28T08:23:50;21.70;59.70
1956;DHT22;978;48.314;11.562;2023-12-28T08:26:18;20.60;58.80
1956;DHT22;978;48.314;11.562;2023-12-28T08:28:48;20.70;59.60
1956;DHT22;978;48.314;11.562;2023-12-28T08:31:16;20.70;59.40
1956;DHT22;978;48.314;11.562;2023-12-28T08:33:43;20.70;59.90
1956;DHT22;978;48.314;11.562;2023-12-28T08:36:11;20.70;59.30
1956;DHT22;978;48.314;11.562;2023-12-28T08:38:43;20.70;59.70
1956;DHT22;978;48.314;11.562;2023-12-28T08:41:18;20.70;59.20
1956;DHT22;978;48.314;11.562;2023-12-28T08:43:47;20.70;59.20
1956;DHT22;978;48.314;11.562;2023-12-28T08:46:15;20.70;59.70
1956;DHT22;978;48.314;11.562;2023-12-28T08:48:44;20.60;59.60
1956;DHT22;978;48.314;11.562;2023-12-28T08:51:10;21.20;59.90
1956;DHT22;978;48.314;11.562;2023-12-28T08:53:41;20.60;59.10
1956;DHT22;978;48.314;11.562;2023-12-28T08:56:20;20.90;59.70
1956;DHT22;978;48.314;11.562;2023-12-28T08:58:49;20.60;59.60
1956;DHT22;978;48.314;11.562;2023-12-28T09:01:19;20.70;59.60
1956;DHT22;978;48.314;11.562;2023-12-28T09:03:48;20.60;59.60
1956;DHT22;978;48.314;11.562;2023-12-28T09:06:17;20.70;59.70
1956;DHT22;978;48.314;11.562;2023-12-28T09:08:46;20.60;59.60
1956;DHT22;978;48.314;11.562;2023-12-28T09:11:15;20.60;59.10
1956;DHT22;978;48.314;11.562;2023-12-28T09:13:42;20.60;59.50
1956;DHT22;978;48.314;11.562;2023-12-28T09:16:15;24.00;60.90
1956;DHT22;978;48.314;11.562;2023-12-28T09:18:44;20.60;59.60
1956;DHT22;978;48.314;11.562;2023-12-28T09:21:11;20.80;59.70
1956;DHT22;978;48.314;11.562;2023-12-28T09:23:41;20.90;59.80
1956;DHT22;978;48.314;11.562;2023-12-28T09:26:10;20.60;59.60
1956;DHT22;978;48.314;11.562;2023-12-28T09:28:40;21.30;59.90
1956;DHT22;978;48.314;11.562;2023-12-28T09:31:08;20.60;59.10
1956;DHT22;978;48.314;11.562;2023-12-28T09:33:38;20.60;59.60
1956;DHT22;978;48.314;11.562;2023-12-28T09:36:05;20.70;59.60
1956;DHT22;978;48.314;11.562;2023-12-28T09:38:36;20.60;59.60
1956;DHT22;978;48.314;11.562;2023-12-28T09:41:09;20.70;59.60
1956;DHT22;978;48.314;11.562;2023-12-28T09:43:45;20.70;59.60
1956;DHT22;978;48.314;11.562;2023-12-28T09:46:14;20.60;59.60
1956;DHT22;978;48.314;11.562;2023-12-28T09:48:44;20.70;59.20
1956;DHT22;978;48.314;11.562;2023-12-28T09:51:11;20.60;59.60
1956;DHT22;978;48.314;11.562;2023-12-28T09:53:40;20.60;59.60
1956;DHT22;978;48.314;11.562;2023-12-28T09:56:08;20.60;59.60
1956;DHT22;978;48.314;11.562;2023-12-28T09:58:36;20.60;59.20
1956;DHT22;978;48.314;11.562;2023-12-28T10:01:05;20.60;59.70
1956;DHT22;978;48.314;11.562;2023-12-28T10:03:36;20.60;59.70
1956;DHT22;978;48.314;11.562;2023-12-28T10:06:05;20.60;59.70
1956;DHT22;978;48.314;11.562;2023-12-28T10:08:33;20.70;59.20
1956;DHT22;978;48.314;11.562;2023-12-28T10:11:03;20.70;59.70
1956;DHT22;978;48.314;11.562;2023-12-28T10:13:33;20.70;59.70
1956;DHT22;978;48.314;11.562;2023-12-28T10:16:01;20.60;59.60
1956;DHT22;978;48.314;11.562;2023-12-28T10:18:30;20.60;59.60
1956;DHT22;978;48.314;11.562;2023-12-28T10:20:57;20.70;59.40
1956;DHT22;978;48.314;11.562;2023-12-28T10:23:27;20.90;59.50
1956;DHT22;978;48.314;11.562;2023-12-28T10:25:56;20.60;59.30
1956;DHT22;978;48.314;11.562;2023-12-28T10:28:24;20.60;59.30
1956;DHT22;978;48.314;11.562;2023-12-28T10:30:54;20.70;59.30
1956;DHT22;978;48.314;11.562;2023-12-28T10:35:52;20.60;58.90
1956;DHT22;978;48.314;11.562;2023-12-28T10:38:20;20.70;58.90
1956;DHT22;978;48.314;11.562;2023-12-28T10:40:51;20.70;59.40
1956;DHT22;978;48.314;11.562;2023-12-28T10:43:20;20.60;58.80
1956;DHT22;978;48.314;11.562;2023-12-28T10:45:51;20.60;58.80
1956;DHT22;978;48.314;11.562;2023-12-28T10:48:25;20.70;58.90
1956;DHT22;978;48.314;11.562;2023-12-28T10:50:57;20.70;59.40
1956;DHT22;978;48.314;11.562;2023-12-28T10:53:37;21.70;59.90
1956;DHT22;978;48.314;11.562;2023-12-28T10:56:17;20.90;59.50
1956;DHT22;978;48.314;11.562;2023-12-28T10:58:49;17.10;57.50
1956;DHT22;978;48.314;11.562;2023-12-28T11:01:22;20.70;59.40
1956;DHT22;978;48.314;11.562;2023-12-28T11:03:56;20.60;58.90
1956;DHT22;978;48.314;11.562;2023-12-28T11:06:27;21.80;60.00
1956;DHT22;978;48.314;11.562;2023-12-28T11:08:57;21.50;59.90
1956;DHT22;978;48.314;11.562;2023-12-28T11:11:27;21.10;59.70
1956;DHT22;978;48.314;11.562;2023-12-28T11:13:56;21.10;59.70
1956;DHT22;978;48.314;11.562;2023-12-28T11:16:24;20.60;59.40
1956;DHT22;978;48.314;11.562;2023-12-28T11:18:53;20.70;59.80
1956;DHT22;978;48.314;11.562;2023-12-28T11:21:22;20.60;60.50
1956;DHT22;978;48.314;11.562;2023-12-28T11:23:51;20.60;60.50
1956;DHT22;978;48.314;11.562;2023-12-28T11:26:20;20.60;60.50
1956;DHT22;978;48.314;11.562;2023-12-28T11:28:50;20.70;60.40
1956;DHT22;978;48.314;11.562;2023-12-28T11:31:18;20.70;60.40
1956;DHT22;978;48.314;11.562;2023-12-28T11:33:47;20.60;60.30
1956;DHT22;978;48.314;11.562;2023-12-28T11:36:22;20.60;60.40
1956;DHT22;978;48.314;11.562;2023-12-28T11:38:53;20.60;60.50
1956;DHT22;978;48.314;11.562;2023-12-28T11:41:25;20.60;60.50
1956;DHT22;978;48.314;11.562;2023-12-28T11:43:54;20.60;60.50
1956;DHT22;978;48.314;11.562;2023-12-28T11:46:22;20.70;60.60
1956;DHT22;978;48.314;11.562;2023-12-28T11:48:51;20.80;60.70
1956;DHT22;978;48.314;11.562;2023-12-28T11:51:19;21.10;60.90
1956;DHT22;978;48.314;11.562;2023-12-28T11:53:47;20.60;60.60
1956;DHT22;978;48.314;11.562;2023-12-28T11:56:16;20.70;60.70
1956;DHT22;978;48.314;11.562;2023-12-28T11:58:44;20.60;60.10
1956;DHT22;978;48.314;11.562;2023-12-28T12:01:16;20.80;60.80
1956;DHT22;978;48.314;11.562;2023-12-28T12:03:44;21.50;61.10
1956;DHT22;978;48.314;11.562;2023-12-28T12:06:13;20.60;60.60
1956;DHT22;978;48.314;11.562;2023-12-28T12:08:41;20.60;60.70
1956;DHT22;978;48.314;11.562;2023-12-28T12:11:12;20.60;60.10
1956;DHT22;978;48.314;11.562;2023-12-28T12:13:40;20.80;60.80
1956;DHT22;978;48.314;11.562;2023-12-28T12:16:07;20.60;60.60
1956;DHT22;978;48.314;11.562;2023-12-28T12:18:37;20.60;60.50
1956;DHT22;978;48.314;11.562;2023-12-28T12:21:05;20.60;60.40
1956;DHT22;978;48.314;11.562;2023-12-28T12:23:35;20.20;60.10
1956;DHT22;978;48.314;11.562;2023-12-28T12:26:05;21.00;60.40
1956;DHT22;978;48.314;11.562;2023-12-28T12:28:33;20.60;60.10
1956;DHT22;978;48.314;11.562;2023-12-28T12:31:03;20.60;59.50
1956;DHT22;978;48.314;11.562;2023-12-28T12:33:31;20.60;60.00
1956;DHT22;978;48.314;11.562;2023-12-28T12:36:00;20.60;59.30
1956;DHT22;978;48.314;11.562;2023-12-28T12:38:29;20.60;59.20
1956;DHT22;978;48.314;11.562;2023-12-28T12:40:58;20.90;59.90
1956;DHT22;978;48.314;11.562;2023-12-28T12:43:26;20.60;59.60
1956;DHT22;978;48.314;11.562;2023-12-28T12:45:54;20.70;59.60
1956;DHT22;978;48.314;11.562;2023-12-28T12:48:23;20.60;59.00
1956;DHT22;978;48.314;11.562;2023-12-28T12:50:51;20.60;59.50
1956;DHT22;978;48.314;11.562;2023-12-28T12:53:20;20.60;59.40
1956;DHT22;978;48.314;11.562;2023-12-28T12:55:54;21.00;59.60
1956;DHT22;978;48.314;11.562;2023-12-28T12:58:22;20.70;59.30
1956;DHT22;978;48.314;11.562;2023-12-28T13:00:50;20.60;59.20
1956;DHT22;978;48.314;11.562;2023-12-28T13:03:19;20.60;58.70
1956;DHT22;978;48.314;11.562;2023-12-28T13:05:47;20.60;59.20
1956;DHT22;978;48.314;11.562;2023-12-28T13:08:15;20.60;59.20
1956;DHT22;978;48.314;11.562;2023-12-28T13:10:44;20.60;59.10
1956;DHT22;978;48.314;11.562;2023-12-28T13:13:12;20.60;59.00
1956;DHT22;978;48.314;11.562;2023-12-28T13:15:40;20.60;59.00
1956;DHT22;978;48.314;11.562;2023-12-28T13:18:07;20.60;58.90
1956;DHT22;978;48.314;11.562;2023-12-28T13:20:35;20.60;58.90
1956;DHT22;978;48.314;11.562;2023-12-28T13:23:03;20.60;59.00
1956;DHT22;978;48.314;11.562;2023-12-28T13:25:31;20.60;59.60
1956;DHT22;978;48.314;11.562;2023-12-28T13:28:00;20.60;59.10
1956;DHT22;978;48.314;11.562;2023-12-28T13:30:30;20.60;59.10
1956;DHT22;978;48.314;11.562;2023-12-28T13:32:59;20.60;59.20
1956;DHT22;978;48.314;11.562;2023-12-28T13:35:27;20.60;59.20
1956;DHT22;978;48.314;11.562;2023-12-28T13:37:55;20.60;58.90
1956;DHT22;978;48.314;11.562;2023-12-28T13:40:23;20.60;59.40
1956;DHT22;978;48.314;11.562;2023-12-28T13:42:51;22.40;60.30
1956;DHT22;978;48.314;11.562;2023-12-28T13:45:20;20.60;59.00
1956;DHT22;978;48.314;11.562;2023-12-28T13:47:49;17.50;57.80
1956;DHT22;978;48.314;11.562;2023-12-28T13:50:16;20.60;59.50
1956;DHT22;978;48.314;11.562;2023-12-28T13:52:44;20.60;59.10
1956;DHT22;978;48.314;11.562;2023-12-28T13:55:12;20.60;59.60
1956;DHT22;978;48.314;11.562;2023-12-28T13:57:41;20.60;59.10
1956;DHT22;978;48.314;11.562;2023-12-28T14:00:10;20.60;59.60
1956;DHT22;978;48.314;11.562;2023-12-28T14:02:39;20.60;59.70
1956;DHT22;978;48.314;11.562;2023-12-28T14:05:06;20.80;59.90
1956;DHT22;978;48.314;11.562;2023-12-28T14:07:34;20.60;59.90
1956;DHT22;978;48.314;11.562;2023-12-28T14:10:04;21.30;60.30
1956;DHT22;978;48.314;11.562;2023-12-28T14:12:32;20.60;60.00
1956;DHT22;978;48.314;11.562;2023-12-28T14:15:00;20.60;60.10
1956;DHT22;978;48.314;11.562;2023-12-28T14:17:28;20.60;60.10
1956;DHT22;978;48.314;11.562;2023-12-28T14:19:58;20.60;60.10
1956;DHT22;978;48.314;11.562;2023-12-28T14:22:27;20.60;59.80
1956;DHT22;978;48.314;11.562;2023-12-28T14:24:55;20.60;60.30
1956;DHT22;978;48.314;11.562;2023-12-28T14:27:24;20.60;60.30
1956;DHT22;978;48.314;11.562;2023-12-28T14:29:52;20.60;59.90
1956;DHT22;978;48.314;11.562;2023-12-28T14:32:20;20.60;59.70
1956;DHT22;978;48.314;11.562;2023-12-28T14:34:50;20.60;58.80
1956;DHT22;978;48.314;11.562;2023-12-28T14:37:20;20.60;58.10
1956;DHT22;978;48.314;11.562;2023-12-28T14:39:48;20.60;57.20
1956;DHT22;978;48.314;11.562;2023-12-28T14:42:16;20.60;56.60
1956;DHT22;978;48.314;11.562;2023-12-28T14:44:44;20.60;57.00
1956;DHT22;978;48.314;11.562;2023-12-28T14:47:12;20.60;56.90
1956;DHT22;978;48.314;11.562;2023-12-28T14:49:40;20.60;58.50
1956;DHT22;978;48.314;11.562;2023-12-28T14:52:07;20.60;58.50
1956;DHT22;978;48.314;11.562;2023-12-28T14:54:36;20.60;59.00
1956;DHT22;978;48.314;11.562;2023-12-28T14:57:04;20.60;59.10
1956;DHT22;978;48.314;11.562;2023-12-28T14:59:32;20.60;59.10
1956;DHT22;978;48.314;11.562;2023-12-28T15:02:00;20.60;59.10
1956;DHT22;978;48.314;11.562;2023-12-28T15:04:28;20.60;59.10
1956;DHT22;978;48.314;11.562;2023-12-28T15:06:56;20.60;58.60
1956;DHT22;978;48.314;11.562;2023-12-28T15:09:24;20.60;59.10
1956;DHT22;978;48.314;11.562;2023-12-28T15:11:55;20.80;59.30
1956;DHT22;978;48.314;11.562;2023-12-28T15:14:24;20.60;59.10
1956;DHT22;978;48.314;11.562;2023-12-28T15:16:52;20.60;59.20
1956;DHT22;978;48.314;11.562;2023-12-28T15:19:21;20.60;59.10
1956;DHT22;978;48.314;11.562;2023-12-28T15:21:49;20.60;59.70
1956;DHT22;978;48.314;11.562;2023-12-28T15:24:18;20.60;59.20
1956;DHT22;978;48.314;11.562;2023-12-28T15:26:46;20.60;59.20
1956;DHT22;978;48.314;11.562;2023-12-28T15:29:15;21.40;59.60
1956;DHT22;978;48.314;11.562;2023-12-28T15:31:42;20.60;59.20
1956;DHT22;978;48.314;11.562;2023-12-28T15:34:09;20.60;59.20
1956;DHT22;978;48.314;11.562;2023-12-28T15:36:37;20.60;59.20
1956;DHT22;978;48.314;11.562;2023-12-28T15:39:05;20.60;58.80
1956;DHT22;978;48.314;11.562;2023-12-28T15:41:34;20.60;59.20
1956;DHT22;978;48.314;11.562;2023-12-28T15:44:02;20.60;59.20
1956;DHT22;978;48.314;11.562;2023-12-28T15:46:31;20.60;59.20
1956;DHT22;978;48.314;11.562;2023-12-28T15:48:59;20.60;58.80
1956;DHT22;978;48.314;11.562;2023-12-28T15:51:27;20.60;59.30
1956;DHT22;978;48.314;11.562;2023-12-28T15:53:55;20.60;58.80
1956;DHT22;978;48.314;11.562;2023-12-28T15:56:23;20.60;59.30
1956;DHT22;978;48.314;11.562;2023-12-28T15:58:51;20.70;59.30
1956;DHT22;978;48.314;11.562;2023-12-28T16:01:19;20.60;59.30
1956;DHT22;978;48.314;11.562;2023-12-28T16:03:48;20.60;59.30
1956;DHT22;978;48.314;11.562;2023-12-28T16:06:16;21.00;59.60
1956;DHT22;978;48.314;11.562;2023-12-28T16:08:44;20.60;59.40
1956;DHT22;978;48.314;11.562;2023-12-28T16:11:11;20.60;59.30
1956;DHT22;978;48.314;11.562;2023-12-28T16:13:40;20.60;59.40
1956;DHT22;978;48.314;11.562;2023-12-28T16:16:10;20.60;59.40